createdAt,value
2022-11-08T00:00:43.332Z,1020.47
2022-11-08T00:01:43.429Z,1020.46
2022-11-08T00:02:43.613Z,1020.48
2022-11-08T00:03:43.360Z,1020.46
2022-11-08T00:04:43.364Z,1020.46
2022-11-08T00:05:43.341Z,1020.47
2022-11-08T00:06:43.353Z,1020.48
2022-11-08T00:07:43.373Z,1020.48
2022-11-08T00:08:43.355Z,1020.44
2022-11-08T00:09:43.348Z,1020.44
2022-11-08T00:10:43.352Z,1020.42
2022-11-08T00:11:43.348Z,1020.38
2022-11-08T00:12:43.363Z,1020.36
2022-11-08T00:13:43.358Z,1020.38
2022-11-08T00:14:43.355Z,1020.36
2022-11-08T00:15:43.337Z,1020.37
2022-11-08T00:16:43.357Z,1020.38
2022-11-08T00:17:43.375Z,1020.4
2022-11-08T00:18:43.347Z,1020.39
2022-11-08T00:19:43.364Z,1020.4
2022-11-08T00:20:43.356Z,1020.44
2022-11-08T00:21:43.347Z,1020.44
2022-11-08T00:22:43.366Z,1020.49
2022-11-08T00:23:43.344Z,1020.5
2022-11-08T00:24:43.352Z,1020.49
2022-11-08T00:25:43.350Z,1020.54
2022-11-08T00:26:43.353Z,1020.54
2022-11-08T00:27:43.373Z,1020.46
2022-11-08T00:28:43.352Z,1020.49
2022-11-08T00:29:43.347Z,1020.45
2022-11-08T00:30:43.334Z,1020.49
2022-11-08T00:31:43.351Z,1020.44
2022-11-08T00:32:43.372Z,1020.43
2022-11-08T00:33:43.350Z,1020.44
2022-11-08T00:34:43.344Z,1020.45
2022-11-08T00:35:43.355Z,1020.47
2022-11-08T00:36:43.337Z,1020.45
2022-11-08T00:37:43.369Z,1020.48
2022-11-08T00:38:43.345Z,1020.46
2022-11-08T00:39:43.343Z,1020.48
2022-11-08T00:40:43.351Z,1020.44
2022-11-08T00:41:43.342Z,1020.46
2022-11-08T00:42:43.365Z,1020.46
2022-11-08T00:43:43.332Z,1020.44
2022-11-08T00:44:43.332Z,1020.41
2022-11-08T00:45:43.347Z,1020.38
2022-11-08T00:46:43.348Z,1020.43
2022-11-08T00:47:43.356Z,1020.42
2022-11-08T00:48:43.342Z,1020.43
2022-11-08T00:49:43.357Z,1020.43
2022-11-08T00:50:43.339Z,1020.43
2022-11-08T00:51:43.338Z,1020.45
2022-11-08T00:52:43.368Z,1020.48
2022-11-08T00:53:43.325Z,1020.51
2022-11-08T00:54:43.332Z,1020.52
2022-11-08T00:55:43.330Z,1020.51
2022-11-08T00:56:43.329Z,1020.5
2022-11-08T00:57:58.411Z,1020.47
2022-11-08T00:58:43.325Z,1020.46
2022-11-08T00:59:43.330Z,1020.52
2022-11-08T01:00:43.400Z,1020.45
2022-11-08T01:01:43.401Z,1020.48
2022-11-08T01:02:43.336Z,1020.48
2022-11-08T01:03:43.330Z,1020.48
2022-11-08T01:04:43.346Z,1020.48
2022-11-08T01:05:43.333Z,1020.41
2022-11-08T01:06:43.334Z,1020.46
2022-11-08T01:07:43.353Z,1020.45
2022-11-08T01:08:43.332Z,1020.44
2022-11-08T01:09:43.329Z,1020.44
2022-11-08T01:10:43.331Z,1020.41
2022-11-08T01:11:43.333Z,1020.45
2022-11-08T01:12:43.345Z,1020.42
2022-11-08T01:13:43.328Z,1020.44
2022-11-08T01:14:43.354Z,1020.4
2022-11-08T01:15:43.401Z,1020.39
2022-11-08T01:16:43.362Z,1020.36
2022-11-08T01:17:43.372Z,1020.35
2022-11-08T01:18:43.343Z,1020.33
2022-11-08T01:19:43.362Z,1020.33
2022-11-08T01:20:43.352Z,1020.33
2022-11-08T01:21:43.360Z,1020.26
2022-11-08T01:22:43.367Z,1020.22
2022-11-08T01:23:43.349Z,1020.24
2022-11-08T01:24:43.346Z,1020.25
2022-11-08T01:25:43.353Z,1020.34
2022-11-08T01:26:43.356Z,1020.29
2022-11-08T01:27:43.359Z,1020.35
2022-11-08T01:28:43.339Z,1020.34
2022-11-08T01:29:43.350Z,1020.32
2022-11-08T01:30:43.354Z,1020.25
2022-11-08T01:31:43.347Z,1020.27
2022-11-08T01:32:43.362Z,1020.22
2022-11-08T01:33:48.409Z,1020.29
2022-11-08T01:34:43.353Z,1020.24
2022-11-08T01:35:43.352Z,1020.22
2022-11-08T01:36:43.356Z,1020.19
2022-11-08T01:37:43.359Z,1020.21
2022-11-08T01:38:43.346Z,1020.22
2022-11-08T01:39:43.355Z,1020.19
2022-11-08T01:40:43.350Z,1020.16
2022-11-08T01:41:43.362Z,1020.19
2022-11-08T01:42:43.366Z,1020.18
2022-11-08T01:43:43.366Z,1020.17
2022-11-08T01:44:43.339Z,1020.18
2022-11-08T01:45:43.353Z,1020.17
2022-11-08T01:46:43.356Z,1020.2
2022-11-08T01:47:43.366Z,1020.2
2022-11-08T01:48:43.356Z,1020.15
2022-11-08T01:49:43.372Z,1020.18
2022-11-08T01:50:43.355Z,1020.11
2022-11-08T01:51:43.356Z,1020.14
2022-11-08T01:52:43.367Z,1020.13
2022-11-08T01:53:43.354Z,1020.11
2022-11-08T01:54:43.353Z,1020.09
2022-11-08T01:55:43.354Z,1020.08
2022-11-08T01:56:43.358Z,1020.05
2022-11-08T01:57:43.365Z,1020.05
2022-11-08T01:58:43.356Z,1019.99
2022-11-08T01:59:43.359Z,1019.93
2022-11-08T02:00:43.350Z,1019.91
2022-11-08T02:01:43.437Z,1019.91
2022-11-08T02:02:43.424Z,1019.94
2022-11-08T02:03:43.341Z,1019.95
2022-11-08T02:04:43.379Z,1019.94
2022-11-08T02:05:43.334Z,1019.9
2022-11-08T02:06:43.340Z,1019.87
2022-11-08T02:07:44.349Z,1019.85
2022-11-08T02:08:43.334Z,1019.86
2022-11-08T02:09:43.329Z,1019.86
2022-11-08T02:10:43.372Z,1019.84
2022-11-08T02:11:43.335Z,1019.86
2022-11-08T02:12:43.353Z,1019.79
2022-11-08T02:13:43.336Z,1019.82
2022-11-08T02:14:43.330Z,1019.78
2022-11-08T02:15:43.344Z,1019.8
2022-11-08T02:16:43.337Z,1019.78
2022-11-08T02:17:43.351Z,1019.8
2022-11-08T02:18:43.335Z,1019.79
2022-11-08T02:19:43.350Z,1019.77
2022-11-08T02:20:43.342Z,1019.84
2022-11-08T02:21:43.335Z,1019.82
2022-11-08T02:22:43.369Z,1019.86
2022-11-08T02:23:43.342Z,1019.88
2022-11-08T02:24:43.365Z,1019.87
2022-11-08T02:25:43.347Z,1019.86
2022-11-08T02:26:43.359Z,1019.84
2022-11-08T02:27:43.367Z,1019.9
2022-11-08T02:28:43.347Z,1019.84
2022-11-08T02:29:43.345Z,1019.87
2022-11-08T02:30:43.359Z,1019.84
2022-11-08T02:31:43.351Z,1019.81
2022-11-08T02:32:43.353Z,1019.8
2022-11-08T02:33:43.349Z,1019.8
2022-11-08T02:34:43.365Z,1019.81
2022-11-08T02:35:43.346Z,1019.73
2022-11-08T02:36:43.381Z,1019.76
2022-11-08T02:37:43.355Z,1019.76
2022-11-08T02:38:43.359Z,1019.76
2022-11-08T02:39:43.346Z,1019.79
2022-11-08T02:40:43.359Z,1019.79
2022-11-08T02:41:43.350Z,1019.76
2022-11-08T02:42:43.353Z,1019.73
2022-11-08T02:43:43.356Z,1019.71
2022-11-08T02:44:43.343Z,1019.79
2022-11-08T02:45:43.406Z,1019.77
2022-11-08T02:46:43.358Z,1019.79
2022-11-08T02:47:43.367Z,1019.8
2022-11-08T02:48:43.355Z,1019.76
2022-11-08T02:49:43.363Z,1019.81
2022-11-08T02:50:43.354Z,1019.78
2022-11-08T02:51:43.430Z,1019.78
2022-11-08T02:52:43.363Z,1019.75
2022-11-08T02:53:43.352Z,1019.78
2022-11-08T02:54:43.340Z,1019.8
2022-11-08T02:55:43.353Z,1019.74
2022-11-08T02:56:43.356Z,1019.76
2022-11-08T02:57:43.363Z,1019.73
2022-11-08T02:58:43.360Z,1019.73
2022-11-08T02:59:43.336Z,1019.73
2022-11-08T03:00:43.350Z,1019.71
2022-11-08T03:01:43.463Z,1019.73
2022-11-08T03:02:43.453Z,1019.69
2022-11-08T03:03:43.364Z,1019.69
2022-11-08T03:04:43.378Z,1019.74
2022-11-08T03:05:43.370Z,1019.74
2022-11-08T03:06:43.362Z,1019.75
2022-11-08T03:07:43.361Z,1019.74
2022-11-08T03:08:43.354Z,1019.73
2022-11-08T03:09:43.351Z,1019.73
2022-11-08T03:10:43.366Z,1019.71
2022-11-08T03:11:43.342Z,1019.69
2022-11-08T03:12:43.355Z,1019.7
2022-11-08T03:13:43.335Z,1019.71
2022-11-08T03:14:43.332Z,1019.71
2022-11-08T03:15:43.335Z,1019.7
2022-11-08T03:16:43.328Z,1019.68
2022-11-08T03:17:43.524Z,1019.7
2022-11-08T03:18:43.336Z,1019.68
2022-11-08T03:19:43.346Z,1019.75
2022-11-08T03:20:43.334Z,1019.66
2022-11-08T03:21:43.328Z,1019.64
2022-11-08T03:22:43.352Z,1019.64
2022-11-08T03:23:43.328Z,1019.7
2022-11-08T03:24:43.358Z,1019.72
2022-11-08T03:25:43.332Z,1019.68
2022-11-08T03:26:43.337Z,1019.67
2022-11-08T03:27:43.357Z,1019.65
2022-11-08T03:28:43.333Z,1019.67
2022-11-08T03:29:43.326Z,1019.65
2022-11-08T03:30:43.341Z,1019.67
2022-11-08T03:31:43.336Z,1019.61
2022-11-08T03:32:43.363Z,1019.62
2022-11-08T03:33:43.351Z,1019.66
2022-11-08T03:34:43.368Z,1019.68
2022-11-08T03:35:43.354Z,1019.72
2022-11-08T03:36:43.346Z,1019.64
2022-11-08T03:37:43.341Z,1019.7
2022-11-08T03:38:43.350Z,1019.69
2022-11-08T03:39:43.350Z,1019.71
2022-11-08T03:40:43.352Z,1019.71
2022-11-08T03:41:43.346Z,1019.72
2022-11-08T03:42:43.365Z,1019.73
2022-11-08T03:43:43.348Z,1019.75
2022-11-08T03:44:43.339Z,1019.76
2022-11-08T03:45:43.354Z,1019.75
2022-11-08T03:46:43.344Z,1019.79
2022-11-08T03:47:43.363Z,1019.76
2022-11-08T03:48:43.361Z,1019.82
2022-11-08T03:49:43.359Z,1019.74
2022-11-08T03:50:43.350Z,1019.76
2022-11-08T03:51:43.349Z,1019.76
2022-11-08T03:52:43.355Z,1019.76
2022-11-08T03:53:43.342Z,1019.75
2022-11-08T03:54:43.345Z,1019.78
2022-11-08T03:55:43.336Z,1019.77
2022-11-08T03:56:43.343Z,1019.75
2022-11-08T03:57:43.370Z,1019.73
2022-11-08T03:58:43.355Z,1019.71
2022-11-08T03:59:43.347Z,1019.72
2022-11-08T04:00:43.344Z,1019.68
2022-11-08T04:01:43.602Z,1019.68
2022-11-08T04:02:43.428Z,1019.65
2022-11-08T04:03:43.352Z,1019.62
2022-11-08T04:04:43.396Z,1019.68
2022-11-08T04:05:43.331Z,1019.64
2022-11-08T04:06:43.352Z,1019.63
2022-11-08T04:07:43.354Z,1019.59
2022-11-08T04:08:43.349Z,1019.66
2022-11-08T04:09:43.350Z,1019.66
2022-11-08T04:10:43.350Z,1019.71
2022-11-08T04:11:43.346Z,1019.73
2022-11-08T04:12:43.362Z,1019.67
2022-11-08T04:13:43.349Z,1019.71
2022-11-08T04:14:43.340Z,1019.69
2022-11-08T04:15:43.355Z,1019.65
2022-11-08T04:16:43.458Z,1019.69
2022-11-08T04:17:43.377Z,1019.7
2022-11-08T04:18:43.326Z,1019.72
2022-11-08T04:19:43.345Z,1019.7
2022-11-08T04:20:43.331Z,1019.72
2022-11-08T04:21:43.336Z,1019.64
2022-11-08T04:22:43.351Z,1019.72
2022-11-08T04:23:43.327Z,1019.76
2022-11-08T04:24:43.329Z,1019.69
2022-11-08T04:25:43.340Z,1019.67
2022-11-08T04:26:43.334Z,1019.69
2022-11-08T04:27:43.354Z,1019.67
2022-11-08T04:28:43.327Z,1019.65
2022-11-08T04:29:43.330Z,1019.71
2022-11-08T04:30:43.338Z,1019.67
2022-11-08T04:31:43.327Z,1019.68
2022-11-08T04:32:43.346Z,1019.7
2022-11-08T04:33:43.328Z,1019.71
2022-11-08T04:34:43.355Z,1019.73
2022-11-08T04:35:43.337Z,1019.7
2022-11-08T04:36:43.328Z,1019.72
2022-11-08T04:37:43.344Z,1019.76
2022-11-08T04:38:43.414Z,1019.73
2022-11-08T04:39:43.332Z,1019.78
2022-11-08T04:40:43.351Z,1019.82
2022-11-08T04:41:43.357Z,1019.79
2022-11-08T04:42:43.364Z,1019.75
2022-11-08T04:43:43.351Z,1019.72
2022-11-08T04:44:43.343Z,1019.73
2022-11-08T04:45:43.345Z,1019.77
2022-11-08T04:46:43.347Z,1019.75
2022-11-08T04:47:48.165Z,1019.79
2022-11-08T04:48:43.351Z,1019.79
2022-11-08T04:49:43.362Z,1019.75
2022-11-08T04:50:43.347Z,1019.8
2022-11-08T04:51:43.357Z,1019.8
2022-11-08T04:52:43.348Z,1019.78
2022-11-08T04:53:43.342Z,1019.77
2022-11-08T04:54:43.347Z,1019.84
2022-11-08T04:55:43.345Z,1019.84
2022-11-08T04:56:43.353Z,1019.86
2022-11-08T04:57:43.358Z,1019.86
2022-11-08T04:58:43.345Z,1019.85
2022-11-08T04:59:43.353Z,1019.92
2022-11-08T05:00:43.328Z,1019.95
2022-11-08T05:01:43.466Z,1019.96
2022-11-08T05:02:43.511Z,1019.93
2022-11-08T05:03:43.344Z,1019.89
2022-11-08T05:04:43.353Z,1019.78
2022-11-08T05:05:43.348Z,1019.81
2022-11-08T05:06:43.338Z,1019.81
2022-11-08T05:07:43.352Z,1019.74
2022-11-08T05:08:43.345Z,1019.73
2022-11-08T05:09:43.355Z,1019.73
2022-11-08T05:10:43.328Z,1019.72
2022-11-08T05:11:43.343Z,1019.73
2022-11-08T05:12:43.362Z,1019.84
2022-11-08T05:13:43.355Z,1019.78
2022-11-08T05:14:43.345Z,1019.81
2022-11-08T05:15:43.344Z,1019.79
2022-11-08T05:16:43.343Z,1019.88
2022-11-08T05:17:43.369Z,1019.79
2022-11-08T05:18:43.341Z,1019.82
2022-11-08T05:19:43.353Z,1019.79
2022-11-08T05:20:43.324Z,1019.8
2022-11-08T05:21:43.327Z,1019.9
2022-11-08T05:22:43.364Z,1019.88
2022-11-08T05:23:43.347Z,1019.91
2022-11-08T05:24:43.343Z,1020
2022-11-08T05:25:43.332Z,1019.89
2022-11-08T05:26:43.327Z,1019.96
2022-11-08T05:27:43.353Z,1019.89
2022-11-08T05:28:43.331Z,1019.93
2022-11-08T05:29:43.330Z,1020
2022-11-08T05:30:43.338Z,1019.89
2022-11-08T05:31:43.332Z,1019.89
2022-11-08T05:32:43.351Z,1019.9
2022-11-08T05:33:43.331Z,1019.78
2022-11-08T05:34:43.353Z,1019.86
2022-11-08T05:35:43.339Z,1019.78
2022-11-08T05:36:43.338Z,1019.72
2022-11-08T05:37:43.350Z,1019.74
2022-11-08T05:38:43.339Z,1019.72
2022-11-08T05:39:43.330Z,1019.78
2022-11-08T05:40:43.333Z,1019.85
2022-11-08T05:41:43.332Z,1019.81
2022-11-08T05:42:43.358Z,1019.75
2022-11-08T05:43:43.353Z,1019.73
2022-11-08T05:44:43.355Z,1019.77
2022-11-08T05:45:43.351Z,1019.94
2022-11-08T05:46:43.425Z,1019.77
2022-11-08T05:47:43.361Z,1019.77
2022-11-08T05:48:43.354Z,1019.8
2022-11-08T05:49:43.351Z,1019.87
2022-11-08T05:50:43.338Z,1019.79
2022-11-08T05:51:43.356Z,1019.82
2022-11-08T05:52:43.367Z,1019.89
2022-11-08T05:53:43.346Z,1019.88
2022-11-08T05:54:43.351Z,1019.86
2022-11-08T05:55:43.345Z,1019.8
2022-11-08T05:56:43.349Z,1019.8
2022-11-08T05:57:43.367Z,1019.76
2022-11-08T05:58:43.350Z,1019.79
2022-11-08T05:59:43.357Z,1019.81
2022-11-08T06:00:43.351Z,1019.89
2022-11-08T06:01:43.413Z,1019.91
2022-11-08T06:02:43.388Z,1019.96
2022-11-08T06:03:43.337Z,1019.91
2022-11-08T06:04:43.362Z,1019.93
2022-11-08T06:05:43.350Z,1019.95
2022-11-08T06:06:43.343Z,1019.96
2022-11-08T06:07:43.355Z,1020.01
2022-11-08T06:08:48.890Z,1020.09
2022-11-08T06:09:43.348Z,1020.09
2022-11-08T06:10:43.328Z,1020.03
2022-11-08T06:11:43.340Z,1020.03
2022-11-08T06:12:43.366Z,1020.13
2022-11-08T06:13:43.338Z,1020.12
2022-11-08T06:14:43.343Z,1020.15
2022-11-08T06:15:43.348Z,1020.05
2022-11-08T06:16:43.348Z,1020.1
2022-11-08T06:17:43.450Z,1020.05
2022-11-08T06:18:43.328Z,1020.11
2022-11-08T06:19:43.364Z,1020.08
2022-11-08T06:20:43.355Z,1020.1
2022-11-08T06:21:43.344Z,1020.17
2022-11-08T06:22:43.352Z,1020.17
2022-11-08T06:23:43.385Z,1020.27
2022-11-08T06:24:43.349Z,1020.2
2022-11-08T06:25:47.430Z,1020.17
2022-11-08T06:26:43.340Z,1020.22
2022-11-08T06:27:43.357Z,1020.22
2022-11-08T06:28:43.351Z,1020.27
2022-11-08T06:29:43.328Z,1020.23
2022-11-08T06:30:43.354Z,1020.31
2022-11-08T06:31:43.462Z,1020.27
2022-11-08T06:32:43.347Z,1020.28
2022-11-08T06:33:43.342Z,1020.32
2022-11-08T06:34:43.350Z,1020.28
2022-11-08T06:35:43.333Z,1020.29
2022-11-08T06:36:43.329Z,1020.35
2022-11-08T06:37:43.357Z,1020.31
2022-11-08T06:38:43.337Z,1020.32
2022-11-08T06:39:43.332Z,1020.32
2022-11-08T06:40:43.334Z,1020.26
2022-11-08T06:41:43.332Z,1020.32
2022-11-08T06:42:43.351Z,1020.29
2022-11-08T06:43:43.334Z,1020.31
2022-11-08T06:44:43.573Z,1020.25
2022-11-08T06:45:43.331Z,1020.27
2022-11-08T06:46:43.339Z,1020.37
2022-11-08T06:47:43.355Z,1020.29
2022-11-08T06:48:43.335Z,1020.29
2022-11-08T06:49:43.345Z,1020.32
2022-11-08T06:50:43.337Z,1020.31
2022-11-08T06:51:43.331Z,1020.31
2022-11-08T06:52:43.362Z,1020.29
2022-11-08T06:53:43.334Z,1020.29
2022-11-08T06:54:43.347Z,1020.29
2022-11-08T06:55:43.334Z,1020.4
2022-11-08T06:56:43.333Z,1020.39
2022-11-08T06:57:43.353Z,1020.34
2022-11-08T06:58:43.328Z,1020.44
2022-11-08T06:59:43.346Z,1020.31
2022-11-08T07:00:43.387Z,1020.43
2022-11-08T07:01:45.868Z,1020.4
2022-11-08T07:02:43.545Z,1020.36
2022-11-08T07:03:43.343Z,1020.37
2022-11-08T07:04:43.433Z,1020.37
2022-11-08T07:05:43.343Z,1020.37
2022-11-08T07:06:43.417Z,1020.34
2022-11-08T07:07:43.359Z,1020.4
2022-11-08T07:08:43.345Z,1020.33
2022-11-08T07:09:43.339Z,1020.33
2022-11-08T07:10:43.344Z,1020.2
2022-11-08T07:11:43.342Z,1020.15
2022-11-08T07:12:43.358Z,1020.18
2022-11-08T07:13:43.352Z,1020.21
2022-11-08T07:14:43.351Z,1020.16
2022-11-08T07:15:43.336Z,1020.16
2022-11-08T07:16:43.335Z,1020.17
2022-11-08T07:17:43.363Z,1020.19
2022-11-08T07:18:43.407Z,1020.19
2022-11-08T07:19:43.370Z,1020.17
2022-11-08T07:20:43.340Z,1020.17
2022-11-08T07:21:43.345Z,1020.23
2022-11-08T07:22:43.366Z,1020.13
2022-11-08T07:23:43.340Z,1020.19
2022-11-08T07:24:43.342Z,1020.15
2022-11-08T07:25:43.338Z,1020.17
2022-11-08T07:26:43.342Z,1020.17
2022-11-08T07:27:43.344Z,1020.17
2022-11-08T07:28:43.349Z,1020.23
2022-11-08T07:29:43.346Z,1020.2
2022-11-08T07:30:43.333Z,1020.18
2022-11-08T07:31:43.337Z,1020.16
2022-11-08T07:32:43.453Z,1020.13
2022-11-08T07:33:43.343Z,1020.15
2022-11-08T07:34:43.358Z,1020.01
2022-11-08T07:35:43.344Z,1020.06
2022-11-08T07:36:43.345Z,1020.01
2022-11-08T07:37:43.444Z,1019.98
2022-11-08T07:38:43.358Z,1020.03
2022-11-08T07:39:43.341Z,1020
2022-11-08T07:40:43.348Z,1020.01
2022-11-08T07:41:43.349Z,1020.03
2022-11-08T07:43:43.427Z,1020.05
2022-11-08T07:44:43.343Z,1020.04
2022-11-08T07:45:43.336Z,1020.01
2022-11-08T07:46:43.339Z,1020.05
2022-11-08T07:47:43.353Z,1020.02
2022-11-08T07:48:43.338Z,1019.97
2022-11-08T07:49:43.367Z,1020.02
2022-11-08T07:50:43.354Z,1019.97
2022-11-08T07:51:43.330Z,1020
2022-11-08T07:52:43.374Z,1020.03
2022-11-08T07:53:43.330Z,1020.08
2022-11-08T07:54:43.348Z,1020.05
2022-11-08T07:55:43.333Z,1020.02
2022-11-08T07:56:43.342Z,1020.03
2022-11-08T07:57:43.361Z,1020.01
2022-11-08T07:58:43.343Z,1020.02
2022-11-08T07:59:43.333Z,1020.09
2022-11-08T08:00:43.342Z,1020.03
2022-11-08T08:01:43.383Z,1019.98
2022-11-08T08:02:43.419Z,1020
2022-11-08T08:03:43.339Z,1019.99
2022-11-08T08:04:43.358Z,1019.99
2022-11-08T08:05:43.365Z,1019.99
2022-11-08T08:06:43.335Z,1020
2022-11-08T08:07:43.366Z,1020.02
2022-11-08T08:09:41.608Z,1020.03
2022-11-08T08:10:40.428Z,1020.08
2022-11-08T08:11:40.422Z,1020.04
2022-11-08T08:12:40.412Z,1020.04
2022-11-08T08:13:40.416Z,1020.02
2022-11-08T08:14:40.394Z,1019.99
2022-11-08T08:15:40.399Z,1019.98
2022-11-08T08:16:40.399Z,1019.96
2022-11-08T08:17:40.423Z,1019.97
2022-11-08T08:18:40.405Z,1019.97
2022-11-08T08:19:40.412Z,1020.01
2022-11-08T08:20:40.426Z,1020
2022-11-08T08:21:40.409Z,1020.01
2022-11-08T08:22:40.401Z,1020
2022-11-08T08:23:40.409Z,1020.02
2022-11-08T08:24:40.393Z,1020.04
2022-11-08T08:25:40.394Z,1020.08
2022-11-08T08:26:40.400Z,1020.03
2022-11-08T08:27:40.391Z,1020
2022-11-08T08:28:40.408Z,1020.03
2022-11-08T08:29:40.407Z,1020.12
2022-11-08T08:30:40.400Z,1020.08
2022-11-08T08:31:40.403Z,1020.06
2022-11-08T08:32:40.402Z,1020
2022-11-08T08:33:40.727Z,1020.01
2022-11-08T08:34:40.409Z,1020
2022-11-08T08:35:40.541Z,1020.02
2022-11-08T08:36:40.413Z,1020.01
2022-11-08T08:37:40.404Z,1020.04
2022-11-08T08:38:44.393Z,1020.03
2022-11-08T08:39:40.396Z,1019.99
2022-11-08T08:40:40.414Z,1019.99
2022-11-08T08:41:40.400Z,1020.01
2022-11-08T08:42:40.403Z,1019.97
2022-11-08T08:43:40.401Z,1019.88
2022-11-08T08:44:40.401Z,1019.88
2022-11-08T08:45:40.409Z,1019.98
2022-11-08T08:46:40.398Z,1019.88
2022-11-08T08:47:40.400Z,1019.85
2022-11-08T08:48:40.406Z,1019.84
2022-11-08T08:49:40.405Z,1019.81
2022-11-08T08:50:40.420Z,1019.82
2022-11-08T08:51:40.391Z,1019.82
2022-11-08T08:52:40.403Z,1019.93
2022-11-08T08:53:40.399Z,1019.87
2022-11-08T08:54:40.396Z,1019.84
2022-11-08T08:55:40.403Z,1019.9
2022-11-08T08:56:40.390Z,1019.81
2022-11-08T08:57:40.387Z,1019.86
2022-11-08T08:58:40.536Z,1019.88
2022-11-08T09:01:40.409Z,1019.81
2022-11-08T09:02:42.458Z,1019.87
2022-11-08T09:03:40.389Z,1019.77
2022-11-08T09:04:40.381Z,1019.84
2022-11-08T09:05:40.388Z,1019.76
2022-11-08T09:06:40.442Z,1019.77
2022-11-08T09:07:40.377Z,1019.68
2022-11-08T09:08:40.386Z,1019.69
2022-11-08T09:10:43.130Z,1019.69
2022-11-08T09:11:41.903Z,1019.58
2022-11-08T09:12:41.535Z,1019.56
2022-11-08T09:13:41.545Z,1019.68
2022-11-08T09:14:41.534Z,1019.57
2022-11-08T09:15:41.528Z,1019.52
2022-11-08T09:16:41.539Z,1019.54
2022-11-08T09:17:41.542Z,1019.59
2022-11-08T09:18:41.674Z,1019.51
2022-11-08T09:19:41.538Z,1019.49
2022-11-08T09:20:41.558Z,1019.75
2022-11-08T09:21:41.646Z,1019.64
2022-11-08T09:22:41.529Z,1019.93
2022-11-08T09:23:41.540Z,1020.03
2022-11-08T09:24:41.548Z,1019.61
2022-11-08T09:25:41.530Z,1019.64
2022-11-08T09:26:41.537Z,1019.86
2022-11-08T09:27:41.528Z,1019.84
2022-11-08T09:28:41.545Z,1019.61
2022-11-08T09:29:41.524Z,1019.59
2022-11-08T09:30:41.534Z,1019.74
2022-11-08T09:31:41.536Z,1019.56
2022-11-08T09:33:41.558Z,1019.57
2022-11-08T09:34:41.521Z,1019.65
2022-11-08T09:36:17.192Z,1019.81
2022-11-08T09:37:16.003Z,1019.67
2022-11-08T09:38:16.250Z,1019.76
2022-11-08T09:39:15.993Z,1019.67
2022-11-08T09:41:16.005Z,1019.87
2022-11-08T09:42:15.986Z,1019.73
2022-11-08T09:43:16.333Z,1019.76
2022-11-08T09:44:15.996Z,1019.59
2022-11-08T09:45:15.968Z,1019.78
2022-11-08T09:46:15.975Z,1019.52
2022-11-08T09:47:15.974Z,1019.76
2022-11-08T09:48:15.976Z,1019.75
2022-11-08T09:49:15.995Z,1019.58
2022-11-08T09:50:15.967Z,1019.56
2022-11-08T09:51:15.988Z,1019.5
2022-11-08T09:52:15.986Z,1019.56
2022-11-08T09:53:16.366Z,1019.49
2022-11-08T09:54:18.600Z,1019.66
2022-11-08T09:55:15.977Z,1019.55
2022-11-08T09:56:15.980Z,1019.61
2022-11-08T09:57:15.972Z,1019.56
2022-11-08T09:58:15.975Z,1019.68
2022-11-08T09:59:15.991Z,1019.5
2022-11-08T10:00:16.097Z,1019.47
2022-11-08T10:01:16.000Z,1019.63
2022-11-08T10:02:16.032Z,1019.54
2022-11-08T10:03:16.360Z,1019.48
2022-11-08T10:04:15.988Z,1019.45
2022-11-08T10:05:16.005Z,1019.49
2022-11-08T10:06:15.969Z,1019.48
2022-11-08T10:07:16.101Z,1019.41
2022-11-08T10:08:15.959Z,1019.44
2022-11-08T10:09:15.992Z,1019.44
2022-11-08T10:10:15.953Z,1019.58
2022-11-08T10:11:15.977Z,1019.58
2022-11-08T10:12:15.970Z,1019.41
2022-11-08T10:13:16.299Z,1019.53
2022-11-08T10:14:16.000Z,1019.63
2022-11-08T10:15:15.993Z,1019.43
2022-11-08T10:16:15.951Z,1019.32
2022-11-08T10:17:15.983Z,1019.64
2022-11-08T10:18:15.979Z,1019.45
2022-11-08T10:19:15.985Z,1019.35
2022-11-08T10:20:15.986Z,1019.51
2022-11-08T10:21:15.963Z,1019.49
2022-11-08T10:22:16.004Z,1019.45
2022-11-08T10:23:16.371Z,1019.39
2022-11-08T10:24:16.030Z,1019.38
2022-11-08T10:25:15.971Z,1019.33
2022-11-08T10:26:15.984Z,1019.39
2022-11-08T10:27:16.072Z,1019.4
2022-11-08T10:28:15.955Z,1019.4
2022-11-08T10:29:15.988Z,1019.26
2022-11-08T10:30:15.973Z,1019.35
2022-11-08T10:31:15.961Z,1019.31
2022-11-08T10:32:15.949Z,1019.45
2022-11-08T10:33:16.310Z,1019.29
2022-11-08T10:34:15.989Z,1019.3
2022-11-08T10:35:15.963Z,1019.24
2022-11-08T10:36:15.967Z,1019.26
2022-11-08T10:37:15.979Z,1019.24
2022-11-08T10:38:15.971Z,1019.23
2022-11-08T10:39:15.989Z,1019.19
2022-11-08T10:40:15.970Z,1019.17
2022-11-08T10:41:15.965Z,1019.17
2022-11-08T10:42:15.976Z,1019.16
2022-11-08T10:43:15.964Z,1019.22
2022-11-08T10:44:15.990Z,1019.15
2022-11-08T10:45:15.980Z,1019.09
2022-11-08T10:46:15.950Z,1019.15
2022-11-08T10:47:15.978Z,1019.1
2022-11-08T10:48:16.278Z,1019.2
2022-11-08T10:49:15.976Z,1019.11
2022-11-08T10:50:15.961Z,1019.03
2022-11-08T10:51:15.966Z,1019.08
2022-11-08T10:52:16.001Z,1019.1
2022-11-08T10:53:16.284Z,1019.07
2022-11-08T10:54:15.982Z,1019.06
2022-11-08T10:55:16.008Z,1018.99
2022-11-08T10:56:15.960Z,1019.03
2022-11-08T10:57:15.982Z,1018.99
2022-11-08T10:58:16.278Z,1019.04
2022-11-08T10:59:15.983Z,1019.01
2022-11-08T11:00:15.974Z,1018.98
2022-11-08T11:01:16.276Z,1018.98
2022-11-08T11:02:16.050Z,1018.96
2022-11-08T11:03:15.961Z,1018.96
2022-11-08T11:04:15.979Z,1018.93
2022-11-08T11:05:15.983Z,1018.93
2022-11-08T11:06:15.962Z,1018.93
2022-11-08T11:07:16.092Z,1018.91
2022-11-08T11:08:16.244Z,1018.87
2022-11-08T11:09:15.985Z,1018.87
2022-11-08T11:10:15.965Z,1018.86
2022-11-08T11:11:15.973Z,1018.78
2022-11-08T11:12:15.965Z,1018.76
2022-11-08T11:13:16.042Z,1018.88
2022-11-08T11:14:19.516Z,1018.79
2022-11-08T11:15:15.977Z,1018.82
2022-11-08T11:16:15.974Z,1018.93
2022-11-08T11:17:16.043Z,1018.91
2022-11-08T11:18:16.123Z,1018.95
2022-11-08T11:19:15.979Z,1018.91
2022-11-08T11:20:16.026Z,1018.87
2022-11-08T11:21:15.987Z,1018.87
2022-11-08T11:22:15.972Z,1018.92
2022-11-08T11:23:15.954Z,1018.95
2022-11-08T11:24:19.235Z,1018.85
2022-11-08T11:25:15.947Z,1018.83
2022-11-08T11:26:15.952Z,1018.94
2022-11-08T11:27:15.952Z,1018.93
2022-11-08T11:28:16.294Z,1018.95
2022-11-08T11:29:16.043Z,1018.85
2022-11-08T11:30:16.020Z,1018.96
2022-11-08T11:31:15.961Z,1018.85
2022-11-08T11:32:15.951Z,1019
2022-11-08T11:33:16.010Z,1018.78
2022-11-08T11:34:15.994Z,1018.83
2022-11-08T11:35:15.964Z,1018.77
2022-11-08T11:36:15.964Z,1018.74
2022-11-08T11:37:15.985Z,1018.78
2022-11-08T11:38:16.201Z,1018.83
2022-11-08T11:39:15.977Z,1018.75
2022-11-08T11:40:15.980Z,1018.82
2022-11-08T11:41:15.961Z,1018.71
2022-11-08T11:42:39.178Z,1018.79
2022-11-08T11:43:15.966Z,1018.74
2022-11-08T11:44:16.245Z,1018.74
2022-11-08T11:45:15.969Z,1018.78
2022-11-08T11:46:15.985Z,1018.71
2022-11-08T11:47:15.978Z,1018.66
2022-11-08T11:48:16.348Z,1018.68
2022-11-08T11:49:15.967Z,1018.65
2022-11-08T11:50:15.985Z,1018.6
2022-11-08T11:51:16.025Z,1018.54
2022-11-08T11:52:15.979Z,1018.51
2022-11-08T11:53:15.966Z,1018.46
2022-11-08T11:54:15.970Z,1018.45
2022-11-08T11:55:15.960Z,1018.46
2022-11-08T11:56:15.965Z,1018.55
2022-11-08T11:57:15.975Z,1018.37
2022-11-08T11:58:16.253Z,1018.33
2022-11-08T11:59:15.976Z,1018.38
2022-11-08T12:00:15.967Z,1018.36
2022-11-08T12:01:15.955Z,1018.41
2022-11-08T12:02:16.098Z,1018.37
2022-11-08T12:03:16.271Z,1018.48
2022-11-08T12:04:15.979Z,1018.38
2022-11-08T12:05:15.976Z,1018.38
2022-11-08T12:06:15.959Z,1018.34
2022-11-08T12:07:16.041Z,1018.41
2022-11-08T12:08:16.264Z,1018.3
2022-11-08T12:09:15.980Z,1018.3
2022-11-08T12:10:15.972Z,1018.29
2022-11-08T12:11:15.964Z,1018.3
2022-11-08T12:12:15.954Z,1018.15
2022-11-08T12:13:15.962Z,1018.18
2022-11-08T12:14:15.981Z,1018.19
2022-11-08T12:15:15.976Z,1018.14
2022-11-08T12:16:15.962Z,1018.08